Weather at Ngau Airport

Public forecast

Using degrees Celsius for public forecast. Weather courtesy of forecast.io.

Closest aviation weather report (METAR) to Ngau Airport

Closest report is Nausori International Airport, 44.8 nm (82.9 km) W. Retrieved 2022/01/17 00:00 UTC (27 minutes ago):

NFNA 170000Z 20005KT 9999 -SHRA BKN017TCU SCT045 OVC100 25/24 Q1006

Closest aviation forecast (TAF) to Ngau Airport

Closest forecast is Nausori International Airport, 44.8 nm (82.9 km) W. Retrieved 2022-01-17 00:00 UTC (27 minutes ago):

TAF NFNA 162326Z 1700/1724 20006KT 9999-SHRA BKN017 TEMPO 1700/1724 5000 TSRA BKN015 FEW018CB